createdAt,value
2023-03-17T00:03:18.328Z,30.62
2023-03-17T00:08:25.782Z,30.63
2023-03-17T00:13:33.154Z,30.68
2023-03-17T00:18:40.674Z,30.77
2023-03-17T00:23:57.620Z,30.89
2023-03-17T00:29:05.003Z,31.00
2023-03-17T00:34:12.437Z,31.09
2023-03-17T00:39:23.965Z,31.17
2023-03-17T00:44:40.328Z,31.17
2023-03-17T00:49:47.934Z,31.31
2023-03-17T00:54:55.476Z,31.38
2023-03-17T01:00:03.055Z,31.41
2023-03-17T01:05:13.423Z,31.49
2023-03-17T01:10:20.816Z,31.49
2023-03-17T01:15:28.128Z,31.58
2023-03-17T01:20:35.440Z,31.63
2023-03-17T01:25:42.683Z,31.72
2023-03-17T01:30:49.983Z,31.80
2023-03-17T01:35:57.265Z,31.83
2023-03-17T01:41:04.592Z,31.88
2023-03-17T01:46:11.871Z,31.89
2023-03-17T01:51:19.002Z,31.92
2023-03-17T01:56:26.329Z,32.01
2023-03-17T02:01:33.484Z,31.99
2023-03-17T02:06:54.952Z,32.04
2023-03-17T02:11:47.889Z,32.08
2023-03-17T02:16:55.242Z,32.14
2023-03-17T02:22:02.425Z,32.17
2023-03-17T02:27:09.607Z,32.18
2023-03-17T02:32:16.770Z,32.18
2023-03-17T02:37:24.007Z,32.21
2023-03-17T02:42:31.267Z,32.26
2023-03-17T02:47:38.418Z,32.23
2023-03-17T02:52:45.607Z,32.27
2023-03-17T02:57:52.831Z,32.23
2023-03-17T03:02:59.984Z,32.30
2023-03-17T03:08:07.165Z,32.29
2023-03-17T03:13:14.381Z,32.30
2023-03-17T03:18:21.554Z,32.03
2023-03-17T03:23:28.783Z,31.94
2023-03-17T03:28:35.930Z,31.88
2023-03-17T03:33:43.207Z,31.86
2023-03-17T03:38:50.387Z,31.78
2023-03-17T03:43:57.610Z,31.91
2023-03-17T03:49:04.769Z,31.95
2023-03-17T03:54:11.937Z,32.00
2023-03-17T03:59:19.179Z,32.02
2023-03-17T04:04:26.437Z,32.01
2023-03-17T04:09:33.582Z,31.94
2023-03-17T04:14:40.808Z,31.91
2023-03-17T04:19:48.011Z,31.90
2023-03-17T04:24:55.267Z,31.84
2023-03-17T04:30:02.748Z,31.95
2023-03-17T04:35:10.109Z,31.97
2023-03-17T04:40:17.319Z,31.90
2023-03-17T04:45:24.754Z,31.94
2023-03-17T04:50:32.383Z,31.75
2023-03-17T04:55:39.335Z,31.93
2023-03-17T05:00:46.744Z,31.82
2023-03-17T05:05:53.862Z,31.93
2023-03-17T05:11:01.365Z,31.82
2023-03-17T05:16:08.938Z,31.84
2023-03-17T05:21:16.181Z,31.86
2023-03-17T05:26:23.586Z,31.88
2023-03-17T05:31:31.150Z,31.84
2023-03-17T05:36:38.564Z,31.92
2023-03-17T05:41:45.943Z,31.87
2023-03-17T05:46:53.335Z,31.89
2023-03-17T05:52:03.472Z,31.88
2023-03-17T05:57:09.892Z,31.91
2023-03-17T06:02:17.592Z,31.91
2023-03-17T06:07:24.860Z,31.91
2023-03-17T06:12:32.497Z,31.86
2023-03-17T06:17:39.935Z,31.86
2023-03-17T06:23:02.794Z,31.79
2023-03-17T06:27:55.391Z,31.77
2023-03-17T06:33:17.716Z,31.74
2023-03-17T06:38:42.605Z,31.72
2023-03-17T06:43:48.732Z,31.68
2023-03-17T06:48:56.310Z,31.66
2023-03-17T06:54:03.791Z,31.64
2023-03-17T06:59:11.201Z,31.65
2023-03-17T07:04:18.690Z,31.63
2023-03-17T07:09:26.113Z,31.62
2023-03-17T07:14:33.586Z,31.73
2023-03-17T07:19:41.160Z,31.76
2023-03-17T07:24:51.370Z,31.79
2023-03-17T07:29:58.720Z,31.73
2023-03-17T07:35:06.233Z,31.74
2023-03-17T07:40:13.574Z,31.70
2023-03-17T07:45:20.885Z,31.69
2023-03-17T07:50:28.302Z,31.67
2023-03-17T07:55:35.570Z,31.65
2023-03-17T08:00:42.923Z,31.70
2023-03-17T08:05:50.578Z,31.65
2023-03-17T08:10:58.850Z,31.68
2023-03-17T08:16:11.139Z,31.69
2023-03-17T08:21:18.446Z,31.77
2023-03-17T08:26:25.828Z,31.82
2023-03-17T08:31:33.354Z,31.83
2023-03-17T08:36:40.521Z,31.78
2023-03-17T08:41:47.963Z,31.78
2023-03-17T08:46:55.425Z,31.80
2023-03-17T08:52:02.860Z,33.25
2023-03-17T08:57:10.235Z,32.77
2023-03-17T09:02:17.660Z,32.94
2023-03-17T09:07:24.967Z,32.84
2023-03-17T09:12:34.106Z,32.74
2023-03-17T09:17:39.863Z,32.71
2023-03-17T09:22:47.234Z,32.72
2023-03-17T09:27:54.469Z,32.70
2023-03-17T09:33:01.856Z,32.65
2023-03-17T09:38:09.183Z,32.70
2023-03-17T09:43:16.553Z,32.72
2023-03-17T09:48:23.914Z,32.73
2023-03-17T09:53:31.301Z,32.73
2023-03-17T09:58:38.707Z,32.78
2023-03-17T10:03:46.101Z,32.70
2023-03-17T10:08:53.515Z,32.72
2023-03-17T10:14:00.913Z,32.68
2023-03-17T10:19:08.319Z,32.66
2023-03-17T10:24:15.676Z,32.62
2023-03-17T10:29:23.049Z,32.59
2023-03-17T10:34:30.439Z,32.60
2023-03-17T10:39:37.868Z,32.59
2023-03-17T10:44:45.157Z,32.63
2023-03-17T10:49:52.809Z,32.62
2023-03-17T10:55:00.203Z,32.65
2023-03-17T11:00:07.568Z,32.68
2023-03-17T11:05:14.985Z,32.71
2023-03-17T11:10:22.400Z,32.75
2023-03-17T11:15:29.816Z,32.72
2023-03-17T11:20:37.424Z,32.78
2023-03-17T11:25:44.744Z,32.86
2023-03-17T11:30:52.127Z,32.83
2023-03-17T11:35:59.631Z,32.82
2023-03-17T11:41:07.060Z,32.85
2023-03-17T11:46:16.661Z,32.82
2023-03-17T11:51:22.778Z,32.81
2023-03-17T11:56:31.618Z,32.84
2023-03-17T12:01:42.721Z,32.88
2023-03-17T12:06:48.576Z,32.87
2023-03-17T12:12:01.657Z,32.85
2023-03-17T12:17:06.977Z,32.91
2023-03-17T12:22:14.328Z,32.95
2023-03-17T12:27:21.889Z,32.97
2023-03-17T12:32:29.396Z,32.97
2023-03-17T12:37:36.676Z,33.03
2023-03-17T12:42:47.051Z,33.01
2023-03-17T12:47:52.037Z,33.03
2023-03-17T12:52:59.446Z,33.13
2023-03-17T12:58:06.877Z,33.13
2023-03-17T13:03:14.604Z,33.09
2023-03-17T13:08:21.945Z,33.20
2023-03-17T13:13:29.611Z,33.25
2023-03-17T13:18:37.017Z,33.26
2023-03-17T13:23:44.363Z,33.29
2023-03-17T13:28:51.746Z,33.37
2023-03-17T13:33:59.170Z,33.41
2023-03-17T13:39:19.312Z,33.47
2023-03-17T13:44:14.662Z,33.53
2023-03-17T13:49:22.067Z,33.63
2023-03-17T13:54:29.457Z,33.65
2023-03-17T13:59:36.850Z,33.70
2023-03-17T14:04:44.064Z,33.67
2023-03-17T14:09:51.469Z,33.69
2023-03-17T14:14:58.759Z,33.68
2023-03-17T14:20:06.086Z,33.78
2023-03-17T14:25:13.428Z,33.74
2023-03-17T14:30:20.912Z,33.79
2023-03-17T14:35:28.405Z,33.80
2023-03-17T14:40:35.817Z,33.81
2023-03-17T14:45:43.267Z,33.84
2023-03-17T14:50:50.716Z,33.81
2023-03-17T14:56:01.551Z,33.84
2023-03-17T15:01:06.461Z,33.91
2023-03-17T15:06:13.890Z,33.91
2023-03-17T15:11:22.395Z,33.96
2023-03-17T15:16:30.032Z,33.97
2023-03-17T15:21:37.328Z,34.00
2023-03-17T15:26:44.933Z,34.01
2023-03-17T15:31:52.613Z,34.03
2023-03-17T15:36:59.872Z,34.03
2023-03-17T15:42:07.232Z,34.04
2023-03-17T15:47:14.594Z,34.08
2023-03-17T15:52:21.925Z,34.07
2023-03-17T15:57:29.183Z,34.03
2023-03-17T16:02:36.579Z,34.09
2023-03-17T16:07:43.892Z,34.02
2023-03-17T16:12:51.290Z,34.02
2023-03-17T16:17:58.679Z,34.00
2023-03-17T16:23:06.013Z,33.98
2023-03-17T16:28:13.290Z,33.97
2023-03-17T16:33:20.755Z,33.97
2023-03-17T16:38:27.937Z,33.94
2023-03-17T16:43:35.249Z,33.91
2023-03-17T16:48:42.560Z,33.91
2023-03-17T16:53:49.837Z,33.92
2023-03-17T17:04:04.888Z,33.94
2023-03-17T17:09:12.451Z,33.93
2023-03-17T17:14:20.174Z,33.94
2023-03-17T17:19:28.326Z,33.97
2023-03-17T17:24:35.525Z,34.00
2023-03-17T17:29:42.833Z,34.04
2023-03-17T17:34:50.215Z,34.04
2023-03-17T17:40:01.601Z,34.03
2023-03-17T17:45:12.440Z,34.02
2023-03-17T17:50:22.309Z,34.02
2023-03-17T17:55:29.910Z,34.03
2023-03-17T18:00:37.733Z,34.04
2023-03-17T18:05:45.312Z,34.05
2023-03-17T18:10:52.778Z,34.31
2023-03-17T18:16:00.452Z,35.49
2023-03-17T18:21:08.811Z,35.81
2023-03-17T18:26:16.592Z,35.73
2023-03-17T18:31:23.984Z,35.61
2023-03-17T18:36:31.350Z,35.45
2023-03-17T18:41:39.130Z,35.37
2023-03-17T18:46:46.857Z,35.43
2023-03-17T18:51:54.600Z,35.07
2023-03-17T18:57:02.297Z,34.98
2023-03-17T19:02:09.855Z,34.92
2023-03-17T19:07:17.261Z,34.33
2023-03-17T19:12:24.848Z,34.23
2023-03-17T19:17:32.636Z,34.04
2023-03-17T19:22:40.338Z,33.94
2023-03-17T19:27:48.155Z,33.84
2023-03-17T19:32:56.741Z,34.00
2023-03-17T19:38:03.673Z,34.10
2023-03-17T19:43:11.131Z,34.29
2023-03-17T19:48:18.513Z,34.57
2023-03-17T19:53:26.988Z,34.40
2023-03-17T19:58:34.319Z,34.49
2023-03-17T20:03:42.110Z,34.49
2023-03-17T20:08:49.824Z,34.36
2023-03-17T20:13:57.529Z,34.32
2023-03-17T20:19:04.837Z,34.39
2023-03-17T20:24:12.186Z,34.29
2023-03-17T20:29:19.605Z,34.20
2023-03-17T20:34:27.162Z,34.10
2023-03-17T20:39:34.894Z,34.55
2023-03-17T20:44:42.800Z,34.26
2023-03-17T20:49:50.483Z,33.97
2023-03-17T20:54:58.166Z,34.07
2023-03-17T21:00:05.596Z,34.02
2023-03-17T21:05:13.171Z,33.88
2023-03-17T21:10:20.789Z,33.68
2023-03-17T21:15:28.229Z,33.42
2023-03-17T21:20:35.529Z,33.30
2023-03-17T21:25:42.842Z,33.25
2023-03-17T21:30:50.148Z,33.42
2023-03-17T21:35:57.644Z,33.25
2023-03-17T21:41:05.030Z,33.13
2023-03-17T21:46:12.230Z,33.23
2023-03-17T21:51:19.544Z,33.13
2023-03-17T21:56:26.890Z,33.24
2023-03-17T22:01:34.181Z,33.07
2023-03-17T22:06:41.240Z,33.00
2023-03-17T22:11:48.536Z,32.80
2023-03-17T22:16:55.764Z,32.72
2023-03-17T22:22:02.989Z,32.72
2023-03-17T22:27:10.230Z,32.47
2023-03-17T22:32:17.485Z,32.39
2023-03-17T22:37:24.774Z,32.24
2023-03-17T22:42:32.035Z,32.20
2023-03-17T22:47:39.255Z,32.03
2023-03-17T22:52:46.598Z,31.81
2023-03-17T22:57:53.865Z,31.86
2023-03-17T23:03:01.140Z,32.12
2023-03-17T23:08:08.379Z,31.88
2023-03-17T23:13:15.663Z,31.68
2023-03-17T23:18:22.854Z,31.74
2023-03-17T23:23:30.145Z,31.83
2023-03-17T23:28:37.553Z,31.65
2023-03-17T23:33:44.705Z,31.39
2023-03-17T23:38:51.893Z,31.40
2023-03-17T23:43:59.113Z,31.31
2023-03-17T23:49:06.369Z,31.31
2023-03-17T23:54:13.627Z,31.40
2023-03-17T23:59:20.938Z,31.30
